sensor_id;sensor_type;location;lat;lon;timestamp;P1;durP1;ratioP1;P2;durP2;ratioP2
37945;SDS011;23769;52.478;13.448;2023-09-08T00:01:04;10.60;;;8.10;;
37945;SDS011;23769;52.478;13.448;2023-09-08T00:03:32;11.65;;;7.93;;
37945;SDS011;23769;52.478;13.448;2023-09-08T00:06:02;14.52;;;11.52;;
37945;SDS011;23769;52.478;13.448;2023-09-08T00:08:32;12.43;;;8.90;;
37945;SDS011;23769;52.478;13.448;2023-09-08T00:10:59;11.13;;;8.73;;
37945;SDS011;23769;52.478;13.448;2023-09-08T00:13:27;10.85;;;8.02;;
37945;SDS011;23769;52.478;13.448;2023-09-08T00:15:56;11.68;;;8.68;;
37945;SDS011;23769;52.478;13.448;2023-09-08T00:18:23;9.90;;;8.02;;
37945;SDS011;23769;52.478;13.448;2023-09-08T00:20:51;11.65;;;8.05;;
37945;SDS011;23769;52.478;13.448;2023-09-08T00:23:19;12.73;;;8.52;;
37945;SDS011;23769;52.478;13.448;2023-09-08T00:25:50;10.60;;;7.75;;
37945;SDS011;23769;52.478;13.448;2023-09-08T00:28:18;10.98;;;8.38;;
37945;SDS011;23769;52.478;13.448;2023-09-08T00:30:46;13.25;;;8.60;;
37945;SDS011;23769;52.478;13.448;2023-09-08T00:33:14;9.60;;;7.90;;
37945;SDS011;23769;52.478;13.448;2023-09-08T00:35:44;10.85;;;8.18;;
37945;SDS011;23769;52.478;13.448;2023-09-08T00:38:15;11.93;;;8.30;;
37945;SDS011;23769;52.478;13.448;2023-09-08T00:40:46;14.18;;;8.77;;
37945;SDS011;23769;52.478;13.448;2023-09-08T00:43:18;11.90;;;8.82;;
37945;SDS011;23769;52.478;13.448;2023-09-08T00:45:46;11.90;;;8.80;;
37945;SDS011;23769;52.478;13.448;2023-09-08T00:48:16;11.93;;;8.73;;
37945;SDS011;23769;52.478;13.448;2023-09-08T00:50:44;11.20;;;8.57;;
37945;SDS011;23769;52.478;13.448;2023-09-08T00:53:12;11.02;;;8.52;;
37945;SDS011;23769;52.478;13.448;2023-09-08T00:55:40;11.10;;;8.43;;
37945;SDS011;23769;52.478;13.448;2023-09-08T00:58:09;11.57;;;8.77;;
37945;SDS011;23769;52.478;13.448;2023-09-08T01:00:39;12.20;;;8.98;;
37945;SDS011;23769;52.478;13.448;2023-09-08T01:03:07;11.68;;;9.07;;
37945;SDS011;23769;52.478;13.448;2023-09-08T01:05:35;10.38;;;8.65;;
37945;SDS011;23769;52.478;13.448;2023-09-08T01:08:03;10.27;;;8.60;;
37945;SDS011;23769;52.478;13.448;2023-09-08T01:10:32;10.90;;;8.93;;
37945;SDS011;23769;52.478;13.448;2023-09-08T01:13:00;10.57;;;9.15;;
37945;SDS011;23769;52.478;13.448;2023-09-08T01:15:28;10.55;;;8.60;;
37945;SDS011;23769;52.478;13.448;2023-09-08T01:17:58;11.30;;;9.30;;
37945;SDS011;23769;52.478;13.448;2023-09-08T01:20:27;12.55;;;9.18;;
37945;SDS011;23769;52.478;13.448;2023-09-08T01:23:11;9.95;;;8.30;;
37945;SDS011;23769;52.478;13.448;2023-09-08T01:25:45;12.52;;;10.27;;
37945;SDS011;23769;52.478;13.448;2023-09-08T01:28:14;11.55;;;9.52;;
37945;SDS011;23769;52.478;13.448;2023-09-08T01:30:41;12.90;;;9.20;;
37945;SDS011;23769;52.478;13.448;2023-09-08T01:33:10;16.05;;;9.23;;
37945;SDS011;23769;52.478;13.448;2023-09-08T01:35:38;12.73;;;8.52;;
37945;SDS011;23769;52.478;13.448;2023-09-08T01:38:06;12.85;;;9.27;;
37945;SDS011;23769;52.478;13.448;2023-09-08T01:40:34;12.20;;;9.77;;
37945;SDS011;23769;52.478;13.448;2023-09-08T01:43:04;12.07;;;9.20;;
37945;SDS011;23769;52.478;13.448;2023-09-08T01:45:32;12.75;;;9.18;;
37945;SDS011;23769;52.478;13.448;2023-09-08T01:48:00;11.27;;;8.93;;
37945;SDS011;23769;52.478;13.448;2023-09-08T01:50:28;12.55;;;9.15;;
37945;SDS011;23769;52.478;13.448;2023-09-08T01:52:56;12.23;;;9.20;;
37945;SDS011;23769;52.478;13.448;2023-09-08T01:55:24;13.18;;;9.45;;
37945;SDS011;23769;52.478;13.448;2023-09-08T01:57:52;11.68;;;9.10;;
37945;SDS011;23769;52.478;13.448;2023-09-08T02:00:21;14.07;;;9.30;;
37945;SDS011;23769;52.478;13.448;2023-09-08T02:02:50;10.35;;;8.05;;
37945;SDS011;23769;52.478;13.448;2023-09-08T02:05:17;11.52;;;9.25;;
37945;SDS011;23769;52.478;13.448;2023-09-08T02:07:46;12.57;;;9.20;;
37945;SDS011;23769;52.478;13.448;2023-09-08T02:10:17;11.90;;;9.02;;
37945;SDS011;23769;52.478;13.448;2023-09-08T02:12:46;10.07;;;8.25;;
37945;SDS011;23769;52.478;13.448;2023-09-08T02:15:14;10.73;;;8.35;;
37945;SDS011;23769;52.478;13.448;2023-09-08T02:17:44;12.88;;;10.18;;
37945;SDS011;23769;52.478;13.448;2023-09-08T02:20:12;12.77;;;9.02;;
37945;SDS011;23769;52.478;13.448;2023-09-08T02:22:40;11.93;;;8.63;;
37945;SDS011;23769;52.478;13.448;2023-09-08T02:25:08;11.23;;;9.05;;
37945;SDS011;23769;52.478;13.448;2023-09-08T02:27:36;12.38;;;8.98;;
37945;SDS011;23769;52.478;13.448;2023-09-08T02:30:05;16.33;;;8.88;;
37945;SDS011;23769;52.478;13.448;2023-09-08T02:32:34;10.40;;;9.02;;
37945;SDS011;23769;52.478;13.448;2023-09-08T02:35:04;14.48;;;10.85;;
37945;SDS011;23769;52.478;13.448;2023-09-08T02:37:32;13.02;;;9.85;;
37945;SDS011;23769;52.478;13.448;2023-09-08T02:39:59;11.88;;;9.48;;
37945;SDS011;23769;52.478;13.448;2023-09-08T02:42:28;13.25;;;10.25;;
37945;SDS011;23769;52.478;13.448;2023-09-08T02:44:56;13.40;;;9.48;;
37945;SDS011;23769;52.478;13.448;2023-09-08T02:47:24;11.30;;;9.32;;
37945;SDS011;23769;52.478;13.448;2023-09-08T02:49:52;14.02;;;10.93;;
37945;SDS011;23769;52.478;13.448;2023-09-08T02:52:21;12.63;;;10.20;;
37945;SDS011;23769;52.478;13.448;2023-09-08T02:54:49;14.10;;;10.30;;
37945;SDS011;23769;52.478;13.448;2023-09-08T02:57:17;12.13;;;9.68;;
37945;SDS011;23769;52.478;13.448;2023-09-08T02:59:48;13.27;;;9.38;;
37945;SDS011;23769;52.478;13.448;2023-09-08T03:02:17;15.73;;;10.27;;
37945;SDS011;23769;52.478;13.448;2023-09-08T03:04:44;11.75;;;9.65;;
37945;SDS011;23769;52.478;13.448;2023-09-08T03:07:12;14.00;;;10.18;;
37945;SDS011;23769;52.478;13.448;2023-09-08T03:09:41;16.30;;;10.30;;
37945;SDS011;23769;52.478;13.448;2023-09-08T03:12:09;10.85;;;9.73;;
37945;SDS011;23769;52.478;13.448;2023-09-08T03:14:36;13.45;;;9.88;;
37945;SDS011;23769;52.478;13.448;2023-09-08T03:17:04;11.45;;;10.00;;
37945;SDS011;23769;52.478;13.448;2023-09-08T03:19:32;13.77;;;10.13;;
37945;SDS011;23769;52.478;13.448;2023-09-08T03:21:59;14.10;;;10.27;;
37945;SDS011;23769;52.478;13.448;2023-09-08T03:24:27;12.55;;;10.23;;
37945;SDS011;23769;52.478;13.448;2023-09-08T03:26:56;11.85;;;9.70;;
37945;SDS011;23769;52.478;13.448;2023-09-08T03:29:24;13.18;;;10.02;;
37945;SDS011;23769;52.478;13.448;2023-09-08T03:31:51;14.20;;;10.07;;
37945;SDS011;23769;52.478;13.448;2023-09-08T03:34:19;17.40;;;10.90;;
37945;SDS011;23769;52.478;13.448;2023-09-08T03:36:48;13.70;;;10.15;;
37945;SDS011;23769;52.478;13.448;2023-09-08T03:39:16;17.00;;;10.82;;
37945;SDS011;23769;52.478;13.448;2023-09-08T03:41:44;18.27;;;10.60;;
37945;SDS011;23769;52.478;13.448;2023-09-08T03:44:14;14.23;;;10.85;;
37945;SDS011;23769;52.478;13.448;2023-09-08T03:46:41;13.07;;;9.93;;
37945;SDS011;23769;52.478;13.448;2023-09-08T03:49:10;13.18;;;11.10;;
37945;SDS011;23769;52.478;13.448;2023-09-08T03:51:38;14.95;;;10.10;;
37945;SDS011;23769;52.478;13.448;2023-09-08T03:54:06;13.75;;;10.55;;
37945;SDS011;23769;52.478;13.448;2023-09-08T03:56:34;13.88;;;11.13;;
37945;SDS011;23769;52.478;13.448;2023-09-08T03:59:02;14.38;;;11.15;;
37945;SDS011;23769;52.478;13.448;2023-09-08T04:01:31;12.55;;;10.13;;
37945;SDS011;23769;52.478;13.448;2023-09-08T04:03:59;14.57;;;11.13;;
37945;SDS011;23769;52.478;13.448;2023-09-08T04:06:27;15.07;;;11.70;;
37945;SDS011;23769;52.478;13.448;2023-09-08T04:08:54;17.25;;;12.57;;
37945;SDS011;23769;52.478;13.448;2023-09-08T04:11:22;15.18;;;10.93;;
37945;SDS011;23769;52.478;13.448;2023-09-08T04:13:51;12.68;;;11.02;;
37945;SDS011;23769;52.478;13.448;2023-09-08T04:16:18;14.68;;;11.85;;
37945;SDS011;23769;52.478;13.448;2023-09-08T04:18:47;17.17;;;12.55;;
37945;SDS011;23769;52.478;13.448;2023-09-08T04:21:15;13.93;;;12.05;;
37945;SDS011;23769;52.478;13.448;2023-09-08T04:23:43;17.63;;;11.85;;
37945;SDS011;23769;52.478;13.448;2023-09-08T04:26:12;16.15;;;13.02;;
37945;SDS011;23769;52.478;13.448;2023-09-08T04:28:40;16.58;;;12.10;;
37945;SDS011;23769;52.478;13.448;2023-09-08T04:31:08;13.73;;;11.93;;
37945;SDS011;23769;52.478;13.448;2023-09-08T04:33:35;18.80;;;11.95;;
37945;SDS011;23769;52.478;13.448;2023-09-08T04:36:04;15.15;;;11.65;;
37945;SDS011;23769;52.478;13.448;2023-09-08T04:38:32;13.35;;;11.77;;
37945;SDS011;23769;52.478;13.448;2023-09-08T04:41:00;14.68;;;11.20;;
37945;SDS011;23769;52.478;13.448;2023-09-08T04:43:27;14.88;;;11.10;;
37945;SDS011;23769;52.478;13.448;2023-09-08T04:45:55;14.95;;;12.40;;
37945;SDS011;23769;52.478;13.448;2023-09-08T04:48:23;17.45;;;12.70;;
37945;SDS011;23769;52.478;13.448;2023-09-08T04:50:51;15.82;;;12.80;;
37945;SDS011;23769;52.478;13.448;2023-09-08T04:53:20;18.92;;;13.98;;
37945;SDS011;23769;52.478;13.448;2023-09-08T04:55:47;15.38;;;11.73;;
37945;SDS011;23769;52.478;13.448;2023-09-08T04:58:15;14.23;;;11.95;;
37945;SDS011;23769;52.478;13.448;2023-09-08T05:00:43;13.63;;;11.25;;
37945;SDS011;23769;52.478;13.448;2023-09-08T05:03:11;13.43;;;11.32;;
37945;SDS011;23769;52.478;13.448;2023-09-08T05:05:38;17.65;;;12.10;;
37945;SDS011;23769;52.478;13.448;2023-09-08T05:08:06;14.13;;;10.77;;
37945;SDS011;23769;52.478;13.448;2023-09-08T05:10:39;18.17;;;11.77;;
37945;SDS011;23769;52.478;13.448;2023-09-08T05:13:07;15.40;;;11.13;;
37945;SDS011;23769;52.478;13.448;2023-09-08T05:15:35;15.45;;;11.95;;
37945;SDS011;23769;52.478;13.448;2023-09-08T05:18:04;14.60;;;11.57;;
37945;SDS011;23769;52.478;13.448;2023-09-08T05:20:31;14.40;;;11.10;;
37945;SDS011;23769;52.478;13.448;2023-09-08T05:23:01;14.43;;;10.63;;
37945;SDS011;23769;52.478;13.448;2023-09-08T05:25:30;16.52;;;11.20;;
37945;SDS011;23769;52.478;13.448;2023-09-08T05:27:59;14.85;;;10.75;;
37945;SDS011;23769;52.478;13.448;2023-09-08T05:30:35;10.95;;;9.77;;
37945;SDS011;23769;52.478;13.448;2023-09-08T05:33:10;13.88;;;10.23;;
37945;SDS011;23769;52.478;13.448;2023-09-08T05:35:38;14.43;;;11.23;;
37945;SDS011;23769;52.478;13.448;2023-09-08T05:38:05;13.23;;;10.65;;
37945;SDS011;23769;52.478;13.448;2023-09-08T05:40:34;10.48;;;8.88;;
37945;SDS011;23769;52.478;13.448;2023-09-08T05:43:03;10.90;;;9.75;;
37945;SDS011;23769;52.478;13.448;2023-09-08T05:45:31;11.63;;;9.25;;
37945;SDS011;23769;52.478;13.448;2023-09-08T05:47:59;12.57;;;8.93;;
37945;SDS011;23769;52.478;13.448;2023-09-08T05:50:26;15.95;;;9.10;;
37945;SDS011;23769;52.478;13.448;2023-09-08T05:52:54;11.50;;;8.27;;
37945;SDS011;23769;52.478;13.448;2023-09-08T05:55:21;14.18;;;8.60;;
37945;SDS011;23769;52.478;13.448;2023-09-08T05:57:48;11.80;;;8.45;;
37945;SDS011;23769;52.478;13.448;2023-09-08T06:00:17;16.15;;;9.25;;
37945;SDS011;23769;52.478;13.448;2023-09-08T06:02:45;18.38;;;8.77;;
37945;SDS011;23769;52.478;13.448;2023-09-08T06:05:12;11.85;;;8.35;;
37945;SDS011;23769;52.478;13.448;2023-09-08T06:07:40;10.18;;;7.15;;
37945;SDS011;23769;52.478;13.448;2023-09-08T06:10:07;10.40;;;7.85;;
37945;SDS011;23769;52.478;13.448;2023-09-08T06:12:35;10.90;;;8.60;;
37945;SDS011;23769;52.478;13.448;2023-09-08T06:15:02;10.27;;;7.72;;
37945;SDS011;23769;52.478;13.448;2023-09-08T06:17:31;10.35;;;8.05;;
37945;SDS011;23769;52.478;13.448;2023-09-08T06:19:58;8.88;;;7.63;;
37945;SDS011;23769;52.478;13.448;2023-09-08T06:22:25;12.35;;;6.72;;
37945;SDS011;23769;52.478;13.448;2023-09-08T06:24:53;9.23;;;7.15;;
37945;SDS011;23769;52.478;13.448;2023-09-08T06:27:20;10.38;;;6.85;;
37945;SDS011;23769;52.478;13.448;2023-09-08T06:29:47;10.80;;;7.50;;
37945;SDS011;23769;52.478;13.448;2023-09-08T06:32:15;9.95;;;7.07;;
37945;SDS011;23769;52.478;13.448;2023-09-08T06:34:44;11.50;;;8.85;;
37945;SDS011;23769;52.478;13.448;2023-09-08T06:37:11;9.23;;;6.78;;
37945;SDS011;23769;52.478;13.448;2023-09-08T06:39:38;11.63;;;7.68;;
37945;SDS011;23769;52.478;13.448;2023-09-08T06:42:06;10.35;;;6.93;;
37945;SDS011;23769;52.478;13.448;2023-09-08T06:44:33;16.58;;;12.27;;
37945;SDS011;23769;52.478;13.448;2023-09-08T06:47:00;10.45;;;7.65;;
37945;SDS011;23769;52.478;13.448;2023-09-08T06:49:28;8.80;;;6.97;;
37945;SDS011;23769;52.478;13.448;2023-09-08T06:51:57;9.73;;;7.13;;
37945;SDS011;23769;52.478;13.448;2023-09-08T06:54:24;8.63;;;7.55;;
37945;SDS011;23769;52.478;13.448;2023-09-08T06:56:52;10.10;;;7.22;;
37945;SDS011;23769;52.478;13.448;2023-09-08T06:59:19;11.60;;;7.45;;
37945;SDS011;23769;52.478;13.448;2023-09-08T07:01:47;10.82;;;8.20;;
37945;SDS011;23769;52.478;13.448;2023-09-08T07:04:14;8.25;;;7.32;;
37945;SDS011;23769;52.478;13.448;2023-09-08T07:06:41;11.75;;;7.47;;
37945;SDS011;23769;52.478;13.448;2023-09-08T07:09:12;10.35;;;6.20;;
37945;SDS011;23769;52.478;13.448;2023-09-08T07:11:40;11.85;;;6.50;;
37945;SDS011;23769;52.478;13.448;2023-09-08T07:14:08;12.40;;;8.00;;
37945;SDS011;23769;52.478;13.448;2023-09-08T07:16:35;9.63;;;6.80;;
37945;SDS011;23769;52.478;13.448;2023-09-08T07:19:02;9.20;;;6.65;;
37945;SDS011;23769;52.478;13.448;2023-09-08T07:21:30;9.63;;;6.60;;
37945;SDS011;23769;52.478;13.448;2023-09-08T07:23:57;10.75;;;7.03;;
37945;SDS011;23769;52.478;13.448;2023-09-08T07:26:27;8.43;;;6.57;;
37945;SDS011;23769;52.478;13.448;2023-09-08T07:28:54;11.23;;;6.60;;
37945;SDS011;23769;52.478;13.448;2023-09-08T07:31:21;8.32;;;6.75;;
37945;SDS011;23769;52.478;13.448;2023-09-08T07:33:48;8.02;;;6.35;;
37945;SDS011;23769;52.478;13.448;2023-09-08T07:36:16;9.35;;;7.20;;
37945;SDS011;23769;52.478;13.448;2023-09-08T07:38:43;10.02;;;7.00;;
37945;SDS011;23769;52.478;13.448;2023-09-08T07:41:10;10.52;;;7.25;;
37945;SDS011;23769;52.478;13.448;2023-09-08T07:43:39;11.73;;;6.75;;
37945;SDS011;23769;52.478;13.448;2023-09-08T07:46:07;12.25;;;6.90;;
37945;SDS011;23769;52.478;13.448;2023-09-08T07:48:35;12.10;;;7.90;;
37945;SDS011;23769;52.478;13.448;2023-09-08T07:51:02;18.98;;;7.80;;
37945;SDS011;23769;52.478;13.448;2023-09-08T07:53:30;11.48;;;7.22;;
37945;SDS011;23769;52.478;13.448;2023-09-08T07:55:57;11.90;;;7.20;;
37945;SDS011;23769;52.478;13.448;2023-09-08T07:58:26;10.30;;;6.93;;
37945;SDS011;23769;52.478;13.448;2023-09-08T08:00:55;15.10;;;10.05;;
37945;SDS011;23769;52.478;13.448;2023-09-08T08:03:22;10.25;;;6.82;;
37945;SDS011;23769;52.478;13.448;2023-09-08T08:05:50;11.93;;;7.45;;
37945;SDS011;23769;52.478;13.448;2023-09-08T08:08:17;13.77;;;7.28;;
37945;SDS011;23769;52.478;13.448;2023-09-08T08:10:45;11.25;;;7.53;;
37945;SDS011;23769;52.478;13.448;2023-09-08T08:13:12;9.38;;;6.40;;
37945;SDS011;23769;52.478;13.448;2023-09-08T08:15:41;9.80;;;6.65;;
37945;SDS011;23769;52.478;13.448;2023-09-08T08:18:11;11.52;;;7.97;;
37945;SDS011;23769;52.478;13.448;2023-09-08T08:20:38;12.70;;;6.95;;
37945;SDS011;23769;52.478;13.448;2023-09-08T08:23:06;11.15;;;7.90;;
37945;SDS011;23769;52.478;13.448;2023-09-08T08:25:34;9.38;;;7.00;;
37945;SDS011;23769;52.478;13.448;2023-09-08T08:28:02;9.50;;;7.03;;
37945;SDS011;23769;52.478;13.448;2023-09-08T08:30:29;8.57;;;6.60;;
37945;SDS011;23769;52.478;13.448;2023-09-08T08:32:57;10.82;;;6.13;;
37945;SDS011;23769;52.478;13.448;2023-09-08T08:35:26;9.93;;;6.65;;
37945;SDS011;23769;52.478;13.448;2023-09-08T08:37:54;10.32;;;6.90;;
37945;SDS011;23769;52.478;13.448;2023-09-08T08:40:21;9.57;;;6.68;;
37945;SDS011;23769;52.478;13.448;2023-09-08T08:42:53;9.52;;;6.82;;
37945;SDS011;23769;52.478;13.448;2023-09-08T08:45:30;9.95;;;7.43;;
37945;SDS011;23769;52.478;13.448;2023-09-08T08:47:58;12.25;;;6.78;;
37945;SDS011;23769;52.478;13.448;2023-09-08T08:50:27;9.88;;;6.65;;
37945;SDS011;23769;52.478;13.448;2023-09-08T08:52:55;10.30;;;7.38;;
37945;SDS011;23769;52.478;13.448;2023-09-08T08:55:23;15.63;;;6.13;;
37945;SDS011;23769;52.478;13.448;2023-09-08T08:57:51;11.10;;;6.82;;
37945;SDS011;23769;52.478;13.448;2023-09-08T09:00:19;9.07;;;6.40;;
37945;SDS011;23769;52.478;13.448;2023-09-08T09:02:47;9.20;;;6.40;;
37945;SDS011;23769;52.478;13.448;2023-09-08T09:05:16;12.40;;;6.72;;
37945;SDS011;23769;52.478;13.448;2023-09-08T09:07:46;8.57;;;7.05;;
37945;SDS011;23769;52.478;13.448;2023-09-08T09:10:14;8.20;;;6.63;;
37945;SDS011;23769;52.478;13.448;2023-09-08T09:12:41;9.90;;;6.10;;
37945;SDS011;23769;52.478;13.448;2023-09-08T09:15:09;8.93;;;5.88;;
37945;SDS011;23769;52.478;13.448;2023-09-08T09:17:37;10.25;;;6.40;;
37945;SDS011;23769;52.478;13.448;2023-09-08T09:20:15;9.05;;;6.38;;
37945;SDS011;23769;52.478;13.448;2023-09-08T09:22:43;8.40;;;6.50;;
37945;SDS011;23769;52.478;13.448;2023-09-08T09:25:22;8.38;;;5.70;;
37945;SDS011;23769;52.478;13.448;2023-09-08T09:27:53;10.93;;;5.65;;
37945;SDS011;23769;52.478;13.448;2023-09-08T09:30:21;9.05;;;6.53;;
37945;SDS011;23769;52.478;13.448;2023-09-08T09:32:50;8.95;;;6.43;;
37945;SDS011;23769;52.478;13.448;2023-09-08T09:35:27;9.77;;;6.03;;
37945;SDS011;23769;52.478;13.448;2023-09-08T09:38:06;10.35;;;6.43;;
37945;SDS011;23769;52.478;13.448;2023-09-08T09:40:35;8.73;;;5.75;;
37945;SDS011;23769;52.478;13.448;2023-09-08T09:43:02;7.32;;;6.28;;
37945;SDS011;23769;52.478;13.448;2023-09-08T09:45:30;10.38;;;8.32;;
37945;SDS011;23769;52.478;13.448;2023-09-08T09:47:58;7.20;;;5.82;;
37945;SDS011;23769;52.478;13.448;2023-09-08T09:50:27;9.95;;;6.05;;
37945;SDS011;23769;52.478;13.448;2023-09-08T09:52:56;11.60;;;6.47;;
37945;SDS011;23769;52.478;13.448;2023-09-08T09:55:27;11.95;;;7.85;;
37945;SDS011;23769;52.478;13.448;2023-09-08T09:57:57;10.60;;;5.95;;
37945;SDS011;23769;52.478;13.448;2023-09-08T10:00:27;8.63;;;6.30;;
37945;SDS011;23769;52.478;13.448;2023-09-08T10:02:54;6.13;;;5.07;;
37945;SDS011;23769;52.478;13.448;2023-09-08T10:05:25;10.23;;;6.30;;
37945;SDS011;23769;52.478;13.448;2023-09-08T10:07:53;12.70;;;5.88;;
37945;SDS011;23769;52.478;13.448;2023-09-08T10:10:21;7.20;;;5.50;;
37945;SDS011;23769;52.478;13.448;2023-09-08T10:12:53;7.95;;;6.07;;
37945;SDS011;23769;52.478;13.448;2023-09-08T10:15:26;7.78;;;5.55;;
37945;SDS011;23769;52.478;13.448;2023-09-08T10:17:57;7.53;;;5.40;;
37945;SDS011;23769;52.478;13.448;2023-09-08T10:21:54;7.60;;;5.22;;
37945;SDS011;23769;52.478;13.448;2023-09-08T10:31:20;8.57;;;5.60;;
37945;SDS011;23769;52.478;13.448;2023-09-08T10:32:56;6.28;;;4.57;;
37945;SDS011;23769;52.478;13.448;2023-09-08T10:38:31;7.57;;;5.65;;
37945;SDS011;23769;52.478;13.448;2023-09-08T10:44:49;7.40;;;5.03;;
37945;SDS011;23769;52.478;13.448;2023-09-08T10:50:17;7.07;;;5.15;;
37945;SDS011;23769;52.478;13.448;2023-09-08T10:52:44;7.95;;;5.38;;
37945;SDS011;23769;52.478;13.448;2023-09-08T10:55:16;9.32;;;6.95;;
37945;SDS011;23769;52.478;13.448;2023-09-08T11:16:23;7.47;;;4.95;;
37945;SDS011;23769;52.478;13.448;2023-09-08T11:18:54;7.38;;;5.18;;
37945;SDS011;23769;52.478;13.448;2023-09-08T11:21:22;7.82;;;4.97;;
37945;SDS011;23769;52.478;13.448;2023-09-08T11:23:49;6.03;;;4.65;;
37945;SDS011;23769;52.478;13.448;2023-09-08T11:26:16;7.00;;;5.07;;
37945;SDS011;23769;52.478;13.448;2023-09-08T11:28:43;7.35;;;4.75;;
37945;SDS011;23769;52.478;13.448;2023-09-08T11:31:13;7.18;;;4.50;;
37945;SDS011;23769;52.478;13.448;2023-09-08T11:33:41;8.70;;;5.05;;
37945;SDS011;23769;52.478;13.448;2023-09-08T11:36:12;7.07;;;5.05;;
37945;SDS011;23769;52.478;13.448;2023-09-08T11:38:41;6.05;;;4.80;;
37945;SDS011;23769;52.478;13.448;2023-09-08T11:41:09;6.40;;;4.60;;
37945;SDS011;23769;52.478;13.448;2023-09-08T11:43:36;5.93;;;4.32;;
37945;SDS011;23769;52.478;13.448;2023-09-08T11:46:04;6.65;;;4.53;;
37945;SDS011;23769;52.478;13.448;2023-09-08T11:48:31;5.43;;;4.63;;
37945;SDS011;23769;52.478;13.448;2023-09-08T11:51:01;8.32;;;4.47;;
37945;SDS011;23769;52.478;13.448;2023-09-08T11:53:28;5.70;;;4.07;;
37945;SDS011;23769;52.478;13.448;2023-09-08T11:55:58;6.38;;;5.00;;
37945;SDS011;23769;52.478;13.448;2023-09-08T11:58:25;10.60;;;9.35;;
37945;SDS011;23769;52.478;13.448;2023-09-08T12:00:53;7.90;;;5.93;;
37945;SDS011;23769;52.478;13.448;2023-09-08T12:03:20;6.10;;;5.10;;
37945;SDS011;23769;52.478;13.448;2023-09-08T12:05:50;8.55;;;5.18;;
37945;SDS011;23769;52.478;13.448;2023-09-08T12:08:19;7.30;;;4.93;;
37945;SDS011;23769;52.478;13.448;2023-09-08T12:10:46;6.03;;;4.63;;
37945;SDS011;23769;52.478;13.448;2023-09-08T12:13:19;5.53;;;4.72;;
37945;SDS011;23769;52.478;13.448;2023-09-08T12:15:47;8.43;;;5.47;;
37945;SDS011;23769;52.478;13.448;2023-09-08T12:18:14;6.15;;;4.70;;
37945;SDS011;23769;52.478;13.448;2023-09-08T12:20:42;5.82;;;4.63;;
37945;SDS011;23769;52.478;13.448;2023-09-08T12:23:15;7.47;;;5.20;;
37945;SDS011;23769;52.478;13.448;2023-09-08T12:25:45;7.15;;;5.22;;
37945;SDS011;23769;52.478;13.448;2023-09-08T12:28:13;10.25;;;5.07;;
37945;SDS011;23769;52.478;13.448;2023-09-08T12:30:40;6.45;;;4.78;;
37945;SDS011;23769;52.478;13.448;2023-09-08T12:33:08;6.90;;;4.40;;
37945;SDS011;23769;52.478;13.448;2023-09-08T12:35:36;7.90;;;4.75;;
37945;SDS011;23769;52.478;13.448;2023-09-08T12:38:04;7.93;;;5.07;;
37945;SDS011;23769;52.478;13.448;2023-09-08T12:40:33;6.32;;;4.40;;
37945;SDS011;23769;52.478;13.448;2023-09-08T12:43:02;6.97;;;4.68;;
37945;SDS011;23769;52.478;13.448;2023-09-08T12:45:30;8.95;;;5.57;;
37945;SDS011;23769;52.478;13.448;2023-09-08T12:47:59;9.23;;;4.72;;
37945;SDS011;23769;52.478;13.448;2023-09-08T12:50:26;7.10;;;4.90;;
37945;SDS011;23769;52.478;13.448;2023-09-08T12:52:54;9.90;;;4.70;;
37945;SDS011;23769;52.478;13.448;2023-09-08T12:55:22;7.47;;;4.43;;
37945;SDS011;23769;52.478;13.448;2023-09-08T12:57:49;6.70;;;4.10;;
37945;SDS011;23769;52.478;13.448;2023-09-08T13:00:21;5.47;;;4.70;;
37945;SDS011;23769;52.478;13.448;2023-09-08T13:02:49;7.07;;;4.40;;
37945;SDS011;23769;52.478;13.448;2023-09-08T13:05:16;8.88;;;4.43;;
37945;SDS011;23769;52.478;13.448;2023-09-08T13:07:43;5.15;;;4.32;;
37945;SDS011;23769;52.478;13.448;2023-09-08T13:10:11;5.55;;;4.65;;
37945;SDS011;23769;52.478;13.448;2023-09-08T13:12:38;6.90;;;4.80;;
37945;SDS011;23769;52.478;13.448;2023-09-08T13:15:06;6.68;;;4.18;;
37945;SDS011;23769;52.478;13.448;2023-09-08T13:17:35;6.28;;;4.55;;
37945;SDS011;23769;52.478;13.448;2023-09-08T13:20:02;10.07;;;5.18;;
37945;SDS011;23769;52.478;13.448;2023-09-08T13:22:29;6.60;;;4.10;;
37945;SDS011;23769;52.478;13.448;2023-09-08T13:24:57;5.30;;;4.15;;
37945;SDS011;23769;52.478;13.448;2023-09-08T13:27:24;5.88;;;4.43;;
37945;SDS011;23769;52.478;13.448;2023-09-08T13:29:53;6.97;;;4.88;;
37945;SDS011;23769;52.478;13.448;2023-09-08T13:32:20;6.18;;;4.10;;
37945;SDS011;23769;52.478;13.448;2023-09-08T13:34:51;5.85;;;4.18;;
37945;SDS011;23769;52.478;13.448;2023-09-08T13:37:18;5.28;;;4.57;;
37945;SDS011;23769;52.478;13.448;2023-09-08T13:39:46;4.35;;;3.80;;
37945;SDS011;23769;52.478;13.448;2023-09-08T13:42:13;6.53;;;4.85;;
37945;SDS011;23769;52.478;13.448;2023-09-08T13:44:40;7.20;;;4.40;;
37945;SDS011;23769;52.478;13.448;2023-09-08T13:47:08;9.80;;;8.52;;
37945;SDS011;23769;52.478;13.448;2023-09-08T13:49:35;7.30;;;4.65;;
37945;SDS011;23769;52.478;13.448;2023-09-08T13:52:04;6.00;;;4.20;;
37945;SDS011;23769;52.478;13.448;2023-09-08T13:54:31;7.63;;;4.93;;
37945;SDS011;23769;52.478;13.448;2023-09-08T13:56:59;8.60;;;4.97;;
37945;SDS011;23769;52.478;13.448;2023-09-08T13:59:27;5.30;;;4.30;;
37945;SDS011;23769;52.478;13.448;2023-09-08T14:01:55;9.65;;;4.95;;
37945;SDS011;23769;52.478;13.448;2023-09-08T14:04:22;8.48;;;4.85;;
37945;SDS011;23769;52.478;13.448;2023-09-08T14:06:49;5.47;;;3.88;;
37945;SDS011;23769;52.478;13.448;2023-09-08T14:09:18;8.75;;;4.32;;
37945;SDS011;23769;52.478;13.448;2023-09-08T14:11:45;5.35;;;4.07;;
37945;SDS011;23769;52.478;13.448;2023-09-08T14:14:13;6.15;;;4.32;;
37945;SDS011;23769;52.478;13.448;2023-09-08T14:16:40;5.75;;;4.03;;
37945;SDS011;23769;52.478;13.448;2023-09-08T14:19:07;5.10;;;3.70;;
37945;SDS011;23769;52.478;13.448;2023-09-08T14:21:34;5.70;;;4.53;;
37945;SDS011;23769;52.478;13.448;2023-09-08T14:24:04;7.00;;;5.70;;
37945;SDS011;23769;52.478;13.448;2023-09-08T14:26:33;6.43;;;4.13;;
37945;SDS011;23769;52.478;13.448;2023-09-08T14:29:01;6.25;;;4.43;;
37945;SDS011;23769;52.478;13.448;2023-09-08T14:31:28;6.13;;;5.20;;
37945;SDS011;23769;52.478;13.448;2023-09-08T14:33:55;7.65;;;5.32;;
37945;SDS011;23769;52.478;13.448;2023-09-08T14:36:23;6.22;;;4.28;;
37945;SDS011;23769;52.478;13.448;2023-09-08T14:38:50;5.80;;;4.28;;
37945;SDS011;23769;52.478;13.448;2023-09-08T14:41:17;5.90;;;4.18;;
37945;SDS011;23769;52.478;13.448;2023-09-08T14:43:46;6.18;;;4.55;;
37945;SDS011;23769;52.478;13.448;2023-09-08T14:46:13;6.07;;;4.30;;
37945;SDS011;23769;52.478;13.448;2023-09-08T14:48:40;5.80;;;4.32;;
37945;SDS011;23769;52.478;13.448;2023-09-08T14:51:08;6.20;;;4.10;;
37945;SDS011;23769;52.478;13.448;2023-09-08T14:53:35;5.68;;;4.38;;
37945;SDS011;23769;52.478;13.448;2023-09-08T14:56:03;6.78;;;4.18;;
37945;SDS011;23769;52.478;13.448;2023-09-08T14:58:30;6.80;;;4.70;;
37945;SDS011;23769;52.478;13.448;2023-09-08T15:01:00;5.68;;;4.00;;
37945;SDS011;23769;52.478;13.448;2023-09-08T15:03:32;5.13;;;4.15;;
37945;SDS011;23769;52.478;13.448;2023-09-08T15:05:59;5.95;;;4.63;;